Lady Ann Magee — 9HA2775 — position and weather

sailwx.info

Track history (hours):
 
Tides and Currents Weather Stations Pressure Air Temp Water Temp Dewpoint Dewpoint Depression Visibility Wind Speed Wind Dir Waves Ship Positions

Lady Ann Magee

Last reported at 2017-Apr-27 10:58 UTC. Time now 2017-Apr-27 11:10 UTC.
Position N 39°34' E 002°38'.

Length 49 m; draft 3.4 m.

Type: Pleasure craft. MMSI: 215660000.

Date/timePositionNaut miles runAvg speedWind from/ knotsBaromVisibWave heightAir tempDewpointWater temp
2017-Apr-27 10:58N 39°34' E 002°38'0 0.0
2017-Apr-27 10:28N 39°34' E 002°38'0 0.0
2017-Apr-27 09:58N 39°34' E 002°38'0 0.0
2017-Apr-27 09:28N 39°34' E 002°38'0 0.0
2017-Apr-27 08:58N 39°34' E 002°38'0 0.0
2017-Apr-27 08:31N 39°34' E 002°38'0 0.0
2017-Apr-27 07:55N 39°34' E 002°38'0 0.0
2017-Apr-27 07:28N 39°34' E 002°38'1 2.8
2017-Apr-27 07:00N 39°33' E 002°38'510.7
2017-Apr-27 06:30N 39°29' E 002°34'510.0
2017-Apr-27 06:00N 39°26' E 002°29'510.1
2017-Apr-27 05:30N 39°24' E 002°23'510.4
2017-Apr-27 05:00N 39°22' E 002°16'510.5
2017-Apr-27 04:30N 39°20' E 002°10'510.2
2017-Apr-27 04:00N 39°19' E 002°04'510.1
2017-Apr-27 03:30N 39°17' E 001°58'5 9.9
2017-Apr-27 03:00N 39°15' E 001°51'510.1
2017-Apr-27 02:30N 39°14' E 001°45'5 9.9
2017-Apr-27 02:00N 39°12' E 001°39'10310.3
2017-Apr-26 16:04N 38°07' W 000°02'111.4
2017-Apr-26 15:59N 38°06' W 000°03'611.4
2017-Apr-26 15:30N 38°01' W 000°07'711.4
2017-Apr-26 14:54N 37°56' W 000°11'611.4
2017-Apr-26 14:21N 37°50' W 000°16'1011.5
2017-Apr-26 13:30N 37°42' W 000°23'611.4
2017-Apr-26 13:00N 37°38' W 000°27'611.2
2017-Apr-26 12:30N 37°33' W 000°31'1411.0
2017-Apr-26 11:16N 37°24' W 000°44'410.8
2017-Apr-26 10:56N 37°22' W 000°47'22710.5
2017-Apr-25 13:24N 36°06' W 005°14'512.6
2017-Apr-25 13:00N 36°05' W 005°20'4 7.8
2017-Apr-25 12:31N 36°09' W 005°22'0 0.6
2017-Apr-25 11:55N 36°09' W 005°22'0 0.0
2017-Apr-25 11:30N 36°09' W 005°22'0 0.0
2017-Apr-25 11:00N 36°09' W 005°22'0 0.0
2017-Apr-25 10:30N 36°09' W 005°22'0 0.0
2017-Apr-25 10:00N 36°09' W 005°22'0 0.0
2017-Apr-25 09:30N 36°09' W 005°22'0 0.0
2017-Apr-25 09:00N 36°09' W 005°22'0 0.0
2017-Apr-25 08:30N 36°09' W 005°22'0 0.0
2017-Apr-25 08:00N 36°09' W 005°22'0 0.0
2017-Apr-25 07:30N 36°09' W 005°22'0 0.2
2017-Apr-25 07:00N 36°09' W 005°22'1 1.0
2017-Apr-25 06:30N 36°09' W 005°21'0 0.0
2017-Apr-25 06:00N 36°09' W 005°21'0 0.0
2017-Apr-25 05:30N 36°09' W 005°21'0 0.0
2017-Apr-25 05:00N 36°09' W 005°21'0 0.0
2017-Apr-25 04:30N 36°09' W 005°21'0 0.0
2017-Apr-25 04:00N 36°09' W 005°21'0 0.0
2017-Apr-25 03:30N 36°09' W 005°21'0 0.0
2017-Apr-25 03:00N 36°09' W 005°21'0 0.0
2017-Apr-25 02:30N 36°09' W 005°21'0 0.0
2017-Apr-25 02:00N 36°09' W 005°21'0 0.0
2017-Apr-25 01:30N 36°09' W 005°21'0 0.0
2017-Apr-25 01:00N 36°09' W 005°21'0 0.0
2017-Apr-25 00:27N 36°09' W 005°21'0 0.0
2017-Apr-24 23:57N 36°09' W 005°21'0 0.0
2017-Apr-24 23:30N 36°09' W 005°21'0 0.0
2017-Apr-24 23:00N 36°09' W 005°21'0 0.0
2017-Apr-24 22:30N 36°09' W 005°21'0 0.0
2017-Apr-24 22:00N 36°09' W 005°21'0 0.0
2017-Apr-24 21:30N 36°09' W 005°21'0 0.0
2017-Apr-24 21:00N 36°09' W 005°21'0 0.0
2017-Apr-24 20:30N 36°09' W 005°21'0 0.0
2017-Apr-24 20:00N 36°09' W 005°21'0 0.0
2017-Apr-24 19:30N 36°09' W 005°21'0 0.0
2017-Apr-24 19:00N 36°09' W 005°21'0 0.0
2017-Apr-24 18:30N 36°09' W 005°21'0 0.0
2017-Apr-24 18:00N 36°09' W 005°21'0 0.0
2017-Apr-24 17:30N 36°09' W 005°21'0 0.0
2017-Apr-24 17:00N 36°09' W 005°21'0 0.0
2017-Apr-24 16:30N 36°09' W 005°21'0 0.0
2017-Apr-24 16:00N 36°09' W 005°21'0 0.0
2017-Apr-24 15:27N 36°09' W 005°21'0 0.0
2017-Apr-24 14:57N 36°09' W 005°21'0 0.0
2017-Apr-24 14:30N 36°09' W 005°21'0 0.0
2017-Apr-24 13:30N 36°09' W 005°21'0 0.0
2017-Apr-24 13:00N 36°09' W 005°21'0 0.0
2017-Apr-24 12:30N 36°09' W 005°21'0 0.0
2017-Apr-24 12:00N 36°09' W 005°21'0 0.0
2017-Apr-24 11:30N 36°09' W 005°21'0 0.0
2017-Apr-24 11:00N 36°09' W 005°21'0 0.0
2017-Apr-24 10:30N 36°09' W 005°21'0 0.0
2017-Apr-24 10:00N 36°09' W 005°21'0 0.0
2017-Apr-24 09:30N 36°09' W 005°21'0 0.0
2017-Apr-24 09:00N 36°09' W 005°21'0 0.0
2017-Apr-24 08:30N 36°09' W 005°21'0 0.0
2017-Apr-24 08:00N 36°09' W 005°21'0 0.0
2017-Apr-24 07:30N 36°09' W 005°21'0 0.0
2017-Apr-24 07:00N 36°09' W 005°21'0 0.0
2017-Apr-24 06:30N 36°09' W 005°21'0 0.0
2017-Apr-24 06:00N 36°09' W 005°21'0 0.0
2017-Apr-24 05:30N 36°09' W 005°21'0 0.0
2017-Apr-24 05:00N 36°09' W 005°21'0 0.0
2017-Apr-24 04:30N 36°09' W 005°21'0 0.0
2017-Apr-24 04:00N 36°09' W 005°21'0 0.0
2017-Apr-24 03:30N 36°09' W 005°21'0 0.0
2017-Apr-24 03:00N 36°09' W 005°21'0 0.0
2017-Apr-24 02:30N 36°09' W 005°21'0 0.0
2017-Apr-24 02:00N 36°09' W 005°21'0 0.0
2017-Apr-24 01:30N 36°09' W 005°21'0 0.0
2017-Apr-24 00:57N 36°09' W 005°21'0 0.0
2017-Apr-24 00:30N 36°09' W 005°21'0 0.0
2017-Apr-24 00:00N 36°09' W 005°21'0 0.0
2017-Apr-23 23:30N 36°09' W 005°21'0 0.0
2017-Apr-23 23:00N 36°09' W 005°21'0 0.0
2017-Apr-23 22:30N 36°09' W 005°21'0 0.0
2017-Apr-23 22:00N 36°09' W 005°21'0 0.0
2017-Apr-23 21:30N 36°09' W 005°21'0 0.0
2017-Apr-23 20:57N 36°09' W 005°21'0 0.0
2017-Apr-23 20:30N 36°09' W 005°21'0 0.0
2017-Apr-23 20:00N 36°09' W 005°21'0 0.0
2017-Apr-23 19:30N 36°09' W 005°21'0 0.0
2017-Apr-23 19:00N 36°09' W 005°21'0 0.0
2017-Apr-23 18:30N 36°09' W 005°21'0 0.0
2017-Apr-23 18:00N 36°09' W 005°21'0 0.0
2017-Apr-23 17:30N 36°09' W 005°21'0 0.0
2017-Apr-23 17:00N 36°09' W 005°21'2 3.8
2017-Apr-23 16:30N 36°07' W 005°22'611.8
2017-Apr-23 16:00N 36°01' W 005°23'510.7
2017-Apr-23 15:30N 35°57' W 005°27'812.5
2017-Apr-23 14:51N 35°55' W 005°37'  
Track history (hours):
 
Tides and Currents Weather Stations Pressure Air Temp Water Temp Dewpoint Dewpoint Depression Visibility Wind Speed Wind Dir Waves Ship Positions

Lady Ann Magee

Last reported at 2017-Apr-27 10:58 UTC. Time now 2017-Apr-27 11:10 UTC.
Position N 39°34' E 002°38'.

Length 49 m; draft 3.4 m.

Type: Pleasure craft. MMSI: 215660000.

Date/timePositionNaut miles runAvg speedWind from/ knotsBaromVisibWave heightAir tempDewpointWater temp
2017-Apr-27 10:58N 39°34' E 002°38'0 0.0
2017-Apr-27 10:28N 39°34' E 002°38'0 0.0
2017-Apr-27 09:58N 39°34' E 002°38'0 0.0
2017-Apr-27 09:28N 39°34' E 002°38'0 0.0
2017-Apr-27 08:58N 39°34' E 002°38'0 0.0
2017-Apr-27 08:31N 39°34' E 002°38'0 0.0
2017-Apr-27 07:55N 39°34' E 002°38'0 0.0
2017-Apr-27 07:28N 39°34' E 002°38'1 2.8
2017-Apr-27 07:00N 39°33' E 002°38'510.7
2017-Apr-27 06:30N 39°29' E 002°34'510.0
2017-Apr-27 06:00N 39°26' E 002°29'510.1
2017-Apr-27 05:30N 39°24' E 002°23'510.4
2017-Apr-27 05:00N 39°22' E 002°16'510.5
2017-Apr-27 04:30N 39°20' E 002°10'510.2
2017-Apr-27 04:00N 39°19' E 002°04'510.1
2017-Apr-27 03:30N 39°17' E 001°58'5 9.9
2017-Apr-27 03:00N 39°15' E 001°51'510.1
2017-Apr-27 02:30N 39°14' E 001°45'5 9.9
2017-Apr-27 02:00N 39°12' E 001°39'10310.3
2017-Apr-26 16:04N 38°07' W 000°02'111.4
2017-Apr-26 15:59N 38°06' W 000°03'611.4
2017-Apr-26 15:30N 38°01' W 000°07'711.4
2017-Apr-26 14:54N 37°56' W 000°11'611.4
2017-Apr-26 14:21N 37°50' W 000°16'1011.5
2017-Apr-26 13:30N 37°42' W 000°23'611.4
2017-Apr-26 13:00N 37°38' W 000°27'611.2
2017-Apr-26 12:30N 37°33' W 000°31'1411.0
2017-Apr-26 11:16N 37°24' W 000°44'410.8
2017-Apr-26 10:56N 37°22' W 000°47'22710.5
2017-Apr-25 13:24N 36°06' W 005°14'512.6
2017-Apr-25 13:00N 36°05' W 005°20'4 7.8
2017-Apr-25 12:31N 36°09' W 005°22'0 0.6
2017-Apr-25 11:55N 36°09' W 005°22'0 0.0
2017-Apr-25 11:30N 36°09' W 005°22'0 0.0
2017-Apr-25 11:00N 36°09' W 005°22'0 0.0
2017-Apr-25 10:30N 36°09' W 005°22'0 0.0
2017-Apr-25 10:00N 36°09' W 005°22'0 0.0
2017-Apr-25 09:30N 36°09' W 005°22'0 0.0
2017-Apr-25 09:00N 36°09' W 005°22'0 0.0
2017-Apr-25 08:30N 36°09' W 005°22'0 0.0
2017-Apr-25 08:00N 36°09' W 005°22'0 0.0
2017-Apr-25 07:30N 36°09' W 005°22'0 0.2
2017-Apr-25 07:00N 36°09' W 005°22'1 1.0
2017-Apr-25 06:30N 36°09' W 005°21'0 0.0
2017-Apr-25 06:00N 36°09' W 005°21'0 0.0
2017-Apr-25 05:30N 36°09' W 005°21'0 0.0
2017-Apr-25 05:00N 36°09' W 005°21'0 0.0
2017-Apr-25 04:30N 36°09' W 005°21'0 0.0
2017-Apr-25 04:00N 36°09' W 005°21'0 0.0
2017-Apr-25 03:30N 36°09' W 005°21'0 0.0
2017-Apr-25 03:00N 36°09' W 005°21'0 0.0
2017-Apr-25 02:30N 36°09' W 005°21'0 0.0
2017-Apr-25 02:00N 36°09' W 005°21'0 0.0
2017-Apr-25 01:30N 36°09' W 005°21'0 0.0
2017-Apr-25 01:00N 36°09' W 005°21'0 0.0
2017-Apr-25 00:27N 36°09' W 005°21'0 0.0
2017-Apr-24 23:57N 36°09' W 005°21'0 0.0
2017-Apr-24 23:30N 36°09' W 005°21'0 0.0
2017-Apr-24 23:00N 36°09' W 005°21'0 0.0
2017-Apr-24 22:30N 36°09' W 005°21'0 0.0
2017-Apr-24 22:00N 36°09' W 005°21'0 0.0
2017-Apr-24 21:30N 36°09' W 005°21'0 0.0
2017-Apr-24 21:00N 36°09' W 005°21'0 0.0
2017-Apr-24 20:30N 36°09' W 005°21'0 0.0
2017-Apr-24 20:00N 36°09' W 005°21'0 0.0
2017-Apr-24 19:30N 36°09' W 005°21'0 0.0
2017-Apr-24 19:00N 36°09' W 005°21'0 0.0
2017-Apr-24 18:30N 36°09' W 005°21'0 0.0
2017-Apr-24 18:00N 36°09' W 005°21'0 0.0
2017-Apr-24 17:30N 36°09' W 005°21'0 0.0
2017-Apr-24 17:00N 36°09' W 005°21'0 0.0
2017-Apr-24 16:30N 36°09' W 005°21'0 0.0
2017-Apr-24 16:00N 36°09' W 005°21'0 0.0
2017-Apr-24 15:27N 36°09' W 005°21'0 0.0
2017-Apr-24 14:57N 36°09' W 005°21'0 0.0
2017-Apr-24 14:30N 36°09' W 005°21'0 0.0
2017-Apr-24 13:30N 36°09' W 005°21'0 0.0
2017-Apr-24 13:00N 36°09' W 005°21'0 0.0
2017-Apr-24 12:30N 36°09' W 005°21'0 0.0
2017-Apr-24 12:00N 36°09' W 005°21'0 0.0
2017-Apr-24 11:30N 36°09' W 005°21'0 0.0
2017-Apr-24 11:00N 36°09' W 005°21'0 0.0
2017-Apr-24 10:30N 36°09' W 005°21'0 0.0
2017-Apr-24 10:00N 36°09' W 005°21'0 0.0
2017-Apr-24 09:30N 36°09' W 005°21'0 0.0
2017-Apr-24 09:00N 36°09' W 005°21'0 0.0
2017-Apr-24 08:30N 36°09' W 005°21'0 0.0
2017-Apr-24 08:00N 36°09' W 005°21'0 0.0
2017-Apr-24 07:30N 36°09' W 005°21'0 0.0
2017-Apr-24 07:00N 36°09' W 005°21'0 0.0
2017-Apr-24 06:30N 36°09' W 005°21'0 0.0
2017-Apr-24 06:00N 36°09' W 005°21'0 0.0
2017-Apr-24 05:30N 36°09' W 005°21'0 0.0
2017-Apr-24 05:00N 36°09' W 005°21'0 0.0
2017-Apr-24 04:30N 36°09' W 005°21'0 0.0
2017-Apr-24 04:00N 36°09' W 005°21'0 0.0
2017-Apr-24 03:30N 36°09' W 005°21'0 0.0
2017-Apr-24 03:00N 36°09' W 005°21'0 0.0
2017-Apr-24 02:30N 36°09' W 005°21'0 0.0
2017-Apr-24 02:00N 36°09' W 005°21'0 0.0
2017-Apr-24 01:30N 36°09' W 005°21'0 0.0
2017-Apr-24 00:57N 36°09' W 005°21'0 0.0
2017-Apr-24 00:30N 36°09' W 005°21'0 0.0
2017-Apr-24 00:00N 36°09' W 005°21'0 0.0
2017-Apr-23 23:30N 36°09' W 005°21'0 0.0
2017-Apr-23 23:00N 36°09' W 005°21'0 0.0
2017-Apr-23 22:30N 36°09' W 005°21'0 0.0
2017-Apr-23 22:00N 36°09' W 005°21'0 0.0
2017-Apr-23 21:30N 36°09' W 005°21'0 0.0
2017-Apr-23 20:57N 36°09' W 005°21'0 0.0
2017-Apr-23 20:30N 36°09' W 005°21'0 0.0
2017-Apr-23 20:00N 36°09' W 005°21'0 0.0
2017-Apr-23 19:30N 36°09' W 005°21'0 0.0
2017-Apr-23 19:00N 36°09' W 005°21'0 0.0
2017-Apr-23 18:30N 36°09' W 005°21'0 0.0
2017-Apr-23 18:00N 36°09' W 005°21'0 0.0
2017-Apr-23 17:30N 36°09' W 005°21'0 0.0
2017-Apr-23 17:00N 36°09' W 005°21'2 3.8
2017-Apr-23 16:30N 36°07' W 005°22'611.8
2017-Apr-23 16:00N 36°01' W 005°23'510.7
2017-Apr-23 15:30N 35°57' W 005°27'812.5
2017-Apr-23 14:51N 35°55' W 005°37'  

Dump ship's entire track history